sensor_id;sensor_type;location;lat;lon;timestamp;temperature;humidity
3705;DHT22;1868;48.918;9.438;2023-01-08T00:01:33;3.60;97.40
3705;DHT22;1868;48.918;9.438;2023-01-08T00:04:02;3.50;97.40
3705;DHT22;1868;48.918;9.438;2023-01-08T00:06:31;3.50;97.40
3705;DHT22;1868;48.918;9.438;2023-01-08T00:09:01;3.40;97.40
3705;DHT22;1868;48.918;9.438;2023-01-08T00:11:30;3.40;97.40
3705;DHT22;1868;48.918;9.438;2023-01-08T00:13:58;3.30;97.40
3705;DHT22;1868;48.918;9.438;2023-01-08T00:16:26;3.30;97.40
3705;DHT22;1868;48.918;9.438;2023-01-08T00:18:55;3.30;97.40
3705;DHT22;1868;48.918;9.438;2023-01-08T00:21:48;3.30;97.40
3705;DHT22;1868;48.918;9.438;2023-01-08T00:24:19;3.30;97.40
3705;DHT22;1868;48.918;9.438;2023-01-08T00:26:48;3.30;97.40
3705;DHT22;1868;48.918;9.438;2023-01-08T00:29:16;3.30;97.40
3705;DHT22;1868;48.918;9.438;2023-01-08T00:31:44;3.30;97.40
3705;DHT22;1868;48.918;9.438;2023-01-08T00:34:14;3.30;97.40
3705;DHT22;1868;48.918;9.438;2023-01-08T00:36:42;3.30;97.40
3705;DHT22;1868;48.918;9.438;2023-01-08T00:39:12;3.20;97.40
3705;DHT22;1868;48.918;9.438;2023-01-08T00:41:40;3.20;97.40
3705;DHT22;1868;48.918;9.438;2023-01-08T00:44:11;3.10;97.40
3705;DHT22;1868;48.918;9.438;2023-01-08T00:46:39;3.10;97.40
3705;DHT22;1868;48.918;9.438;2023-01-08T00:49:07;3.10;97.40
3705;DHT22;1868;48.918;9.438;2023-01-08T00:51:36;3.00;97.40
3705;DHT22;1868;48.918;9.438;2023-01-08T00:54:05;3.00;97.40
3705;DHT22;1868;48.918;9.438;2023-01-08T00:56:34;3.00;97.40
3705;DHT22;1868;48.918;9.438;2023-01-08T00:59:02;3.00;97.40
3705;DHT22;1868;48.918;9.438;2023-01-08T01:01:31;3.00;97.40
3705;DHT22;1868;48.918;9.438;2023-01-08T01:03:59;3.00;97.40
3705;DHT22;1868;48.918;9.438;2023-01-08T01:06:28;3.00;97.40
3705;DHT22;1868;48.918;9.438;2023-01-08T01:08:56;2.90;97.40
3705;DHT22;1868;48.918;9.438;2023-01-08T01:11:26;2.90;97.40
3705;DHT22;1868;48.918;9.438;2023-01-08T01:13:56;2.90;97.40
3705;DHT22;1868;48.918;9.438;2023-01-08T01:16:25;2.90;97.40
3705;DHT22;1868;48.918;9.438;2023-01-08T01:19:07;2.90;97.40
3705;DHT22;1868;48.918;9.438;2023-01-08T01:21:37;2.90;97.40
3705;DHT22;1868;48.918;9.438;2023-01-08T01:24:06;2.90;97.40
3705;DHT22;1868;48.918;9.438;2023-01-08T01:26:37;2.90;97.40
3705;DHT22;1868;48.918;9.438;2023-01-08T01:29:08;2.90;97.40
3705;DHT22;1868;48.918;9.438;2023-01-08T01:31:36;3.00;97.40
3705;DHT22;1868;48.918;9.438;2023-01-08T01:34:04;3.00;97.40
3705;DHT22;1868;48.918;9.438;2023-01-08T01:36:32;3.00;97.40
3705;DHT22;1868;48.918;9.438;2023-01-08T01:39:01;3.00;97.40
3705;DHT22;1868;48.918;9.438;2023-01-08T01:41:36;2.90;97.40
3705;DHT22;1868;48.918;9.438;2023-01-08T01:44:41;2.90;97.40
3705;DHT22;1868;48.918;9.438;2023-01-08T01:47:22;2.90;97.40
3705;DHT22;1868;48.918;9.438;2023-01-08T01:49:59;2.90;97.40
3705;DHT22;1868;48.918;9.438;2023-01-08T01:52:56;2.90;97.40
3705;DHT22;1868;48.918;9.438;2023-01-08T01:55:28;2.90;97.40
3705;DHT22;1868;48.918;9.438;2023-01-08T01:58:02;2.90;97.40
3705;DHT22;1868;48.918;9.438;2023-01-08T02:00:34;2.90;97.40
3705;DHT22;1868;48.918;9.438;2023-01-08T02:03:04;3.00;97.40
3705;DHT22;1868;48.918;9.438;2023-01-08T02:05:36;3.00;97.40
3705;DHT22;1868;48.918;9.438;2023-01-08T02:08:11;3.00;97.40
3705;DHT22;1868;48.918;9.438;2023-01-08T02:10:46;3.00;97.40
3705;DHT22;1868;48.918;9.438;2023-01-08T02:13:22;3.10;97.40
3705;DHT22;1868;48.918;9.438;2023-01-08T02:15:56;3.10;97.40
3705;DHT22;1868;48.918;9.438;2023-01-08T02:18:35;3.10;97.40
3705;DHT22;1868;48.918;9.438;2023-01-08T02:21:09;3.10;97.40
3705;DHT22;1868;48.918;9.438;2023-01-08T02:23:46;3.10;97.40
3705;DHT22;1868;48.918;9.438;2023-01-08T02:26:23;3.20;97.40
3705;DHT22;1868;48.918;9.438;2023-01-08T02:28:57;3.20;97.40
3705;DHT22;1868;48.918;9.438;2023-01-08T02:31:28;3.20;97.40
3705;DHT22;1868;48.918;9.438;2023-01-08T02:33:58;3.30;97.40
3705;DHT22;1868;48.918;9.438;2023-01-08T02:36:31;3.30;97.40
3705;DHT22;1868;48.918;9.438;2023-01-08T02:39:14;3.30;97.40
3705;DHT22;1868;48.918;9.438;2023-01-08T02:42:06;3.40;97.40
3705;DHT22;1868;48.918;9.438;2023-01-08T02:44:47;3.40;97.40
3705;DHT22;1868;48.918;9.438;2023-01-08T02:47:25;3.50;97.40
3705;DHT22;1868;48.918;9.438;2023-01-08T02:50:04;3.50;97.40
3705;DHT22;1868;48.918;9.438;2023-01-08T02:52:41;3.60;97.40
3705;DHT22;1868;48.918;9.438;2023-01-08T02:55:21;3.60;97.40
3705;DHT22;1868;48.918;9.438;2023-01-08T02:57:52;3.70;97.40
3705;DHT22;1868;48.918;9.438;2023-01-08T03:00:21;3.70;97.40
3705;DHT22;1868;48.918;9.438;2023-01-08T03:02:53;3.70;97.40
3705;DHT22;1868;48.918;9.438;2023-01-08T03:05:26;3.70;97.40
3705;DHT22;1868;48.918;9.438;2023-01-08T03:07:55;3.80;97.40
3705;DHT22;1868;48.918;9.438;2023-01-08T03:10:25;3.80;97.40
3705;DHT22;1868;48.918;9.438;2023-01-08T03:13:00;3.70;97.40
3705;DHT22;1868;48.918;9.438;2023-01-08T03:15:33;3.70;97.40
3705;DHT22;1868;48.918;9.438;2023-01-08T03:18:07;3.70;97.40
3705;DHT22;1868;48.918;9.438;2023-01-08T03:20:37;3.70;97.40
3705;DHT22;1868;48.918;9.438;2023-01-08T03:23:08;3.70;97.40
3705;DHT22;1868;48.918;9.438;2023-01-08T03:25:40;3.70;97.40
3705;DHT22;1868;48.918;9.438;2023-01-08T03:28:41;3.80;97.40
3705;DHT22;1868;48.918;9.438;2023-01-08T03:31:14;3.80;97.40
3705;DHT22;1868;48.918;9.438;2023-01-08T03:33:46;3.80;97.40
3705;DHT22;1868;48.918;9.438;2023-01-08T03:36:19;3.70;97.40
3705;DHT22;1868;48.918;9.438;2023-01-08T03:38:52;3.80;97.40
3705;DHT22;1868;48.918;9.438;2023-01-08T03:41:30;3.80;97.40
3705;DHT22;1868;48.918;9.438;2023-01-08T03:44:00;3.80;97.40
3705;DHT22;1868;48.918;9.438;2023-01-08T03:46:32;3.90;97.40
3705;DHT22;1868;48.918;9.438;2023-01-08T03:49:03;3.90;97.40
3705;DHT22;1868;48.918;9.438;2023-01-08T03:51:40;3.90;97.40
3705;DHT22;1868;48.918;9.438;2023-01-08T03:54:12;4.00;97.40
3705;DHT22;1868;48.918;9.438;2023-01-08T03:56:41;4.00;97.40
3705;DHT22;1868;48.918;9.438;2023-01-08T03:59:12;4.00;97.40
3705;DHT22;1868;48.918;9.438;2023-01-08T04:01:41;4.10;97.40
3705;DHT22;1868;48.918;9.438;2023-01-08T04:04:10;4.10;97.40
3705;DHT22;1868;48.918;9.438;2023-01-08T04:06:39;4.20;97.40
3705;DHT22;1868;48.918;9.438;2023-01-08T04:09:08;4.20;97.40
3705;DHT22;1868;48.918;9.438;2023-01-08T04:11:37;4.20;97.40
3705;DHT22;1868;48.918;9.438;2023-01-08T04:14:05;4.20;97.40
3705;DHT22;1868;48.918;9.438;2023-01-08T04:16:35;4.20;97.40
3705;DHT22;1868;48.918;9.438;2023-01-08T04:19:03;4.30;97.40
3705;DHT22;1868;48.918;9.438;2023-01-08T04:21:31;4.20;97.40
3705;DHT22;1868;48.918;9.438;2023-01-08T04:23:59;4.20;97.40
3705;DHT22;1868;48.918;9.438;2023-01-08T04:26:28;4.30;97.40
3705;DHT22;1868;48.918;9.438;2023-01-08T04:28:56;4.30;97.40
3705;DHT22;1868;48.918;9.438;2023-01-08T04:31:24;4.40;97.40
3705;DHT22;1868;48.918;9.438;2023-01-08T04:33:54;4.40;97.40
3705;DHT22;1868;48.918;9.438;2023-01-08T04:36:22;4.40;97.40
3705;DHT22;1868;48.918;9.438;2023-01-08T04:38:50;4.50;97.40
3705;DHT22;1868;48.918;9.438;2023-01-08T04:41:22;4.50;97.40
3705;DHT22;1868;48.918;9.438;2023-01-08T04:43:50;4.50;97.40
3705;DHT22;1868;48.918;9.438;2023-01-08T04:46:19;4.50;97.40
3705;DHT22;1868;48.918;9.438;2023-01-08T04:49:18;4.50;97.40
3705;DHT22;1868;48.918;9.438;2023-01-08T04:51:51;4.50;97.40
3705;DHT22;1868;48.918;9.438;2023-01-08T04:54:22;4.50;97.40
3705;DHT22;1868;48.918;9.438;2023-01-08T04:56:50;4.60;97.40
3705;DHT22;1868;48.918;9.438;2023-01-08T04:59:19;4.60;97.40
3705;DHT22;1868;48.918;9.438;2023-01-08T05:01:47;4.60;97.40
3705;DHT22;1868;48.918;9.438;2023-01-08T05:04:19;4.60;97.40
3705;DHT22;1868;48.918;9.438;2023-01-08T05:06:47;4.70;97.40
3705;DHT22;1868;48.918;9.438;2023-01-08T05:09:18;4.70;97.40
3705;DHT22;1868;48.918;9.438;2023-01-08T05:11:48;4.70;97.40
3705;DHT22;1868;48.918;9.438;2023-01-08T05:14:17;4.80;97.40
3705;DHT22;1868;48.918;9.438;2023-01-08T05:16:45;4.80;97.40
3705;DHT22;1868;48.918;9.438;2023-01-08T05:19:14;4.80;97.40
3705;DHT22;1868;48.918;9.438;2023-01-08T05:21:43;4.90;97.40
3705;DHT22;1868;48.918;9.438;2023-01-08T05:24:14;5.20;97.40
3705;DHT22;1868;48.918;9.438;2023-01-08T05:26:42;5.80;97.40
3705;DHT22;1868;48.918;9.438;2023-01-08T05:29:10;6.30;97.40
3705;DHT22;1868;48.918;9.438;2023-01-08T05:31:39;6.90;97.40
3705;DHT22;1868;48.918;9.438;2023-01-08T05:34:07;7.30;97.40
3705;DHT22;1868;48.918;9.438;2023-01-08T05:36:35;7.60;97.40
3705;DHT22;1868;48.918;9.438;2023-01-08T05:39:06;7.90;97.40
3705;DHT22;1868;48.918;9.438;2023-01-08T05:41:34;8.10;97.40
3705;DHT22;1868;48.918;9.438;2023-01-08T05:44:02;8.30;97.40
3705;DHT22;1868;48.918;9.438;2023-01-08T05:46:30;8.30;97.40
3705;DHT22;1868;48.918;9.438;2023-01-08T05:48:59;8.30;97.40
3705;DHT22;1868;48.918;9.438;2023-01-08T05:51:27;8.40;97.40
3705;DHT22;1868;48.918;9.438;2023-01-08T05:53:58;8.50;97.40
3705;DHT22;1868;48.918;9.438;2023-01-08T05:56:31;8.50;97.40
3705;DHT22;1868;48.918;9.438;2023-01-08T05:58:59;8.50;97.40
3705;DHT22;1868;48.918;9.438;2023-01-08T06:01:49;8.60;97.40
3705;DHT22;1868;48.918;9.438;2023-01-08T06:04:17;8.60;97.40
3705;DHT22;1868;48.918;9.438;2023-01-08T06:06:46;8.60;97.40
3705;DHT22;1868;48.918;9.438;2023-01-08T06:09:14;8.60;97.40
3705;DHT22;1868;48.918;9.438;2023-01-08T06:14:53;8.70;97.40
3705;DHT22;1868;48.918;9.438;2023-01-08T06:17:21;8.70;97.40
3705;DHT22;1868;48.918;9.438;2023-01-08T06:19:49;8.80;97.40
3705;DHT22;1868;48.918;9.438;2023-01-08T06:22:18;8.80;97.40
3705;DHT22;1868;48.918;9.438;2023-01-08T06:24:49;8.80;97.40
3705;DHT22;1868;48.918;9.438;2023-01-08T06:27:36;8.80;97.40
3705;DHT22;1868;48.918;9.438;2023-01-08T06:30:07;8.90;97.40
3705;DHT22;1868;48.918;9.438;2023-01-08T06:32:36;8.90;97.40
3705;DHT22;1868;48.918;9.438;2023-01-08T06:35:05;8.90;97.40
3705;DHT22;1868;48.918;9.438;2023-01-08T06:37:54;8.90;97.40
3705;DHT22;1868;48.918;9.438;2023-01-08T06:40:22;8.90;97.40
3705;DHT22;1868;48.918;9.438;2023-01-08T06:42:52;9.00;97.40
3705;DHT22;1868;48.918;9.438;2023-01-08T06:46:33;9.00;97.40
3705;DHT22;1868;48.918;9.438;2023-01-08T06:49:06;9.00;97.40
3705;DHT22;1868;48.918;9.438;2023-01-08T06:51:35;9.00;97.40
3705;DHT22;1868;48.918;9.438;2023-01-08T06:54:04;9.10;97.40
3705;DHT22;1868;48.918;9.438;2023-01-08T06:56:32;9.10;97.40
3705;DHT22;1868;48.918;9.438;2023-01-08T06:59:19;9.10;97.40
3705;DHT22;1868;48.918;9.438;2023-01-08T07:06:36;9.10;97.40
3705;DHT22;1868;48.918;9.438;2023-01-08T07:09:05;9.10;97.40
3705;DHT22;1868;48.918;9.438;2023-01-08T07:11:33;9.10;97.40
3705;DHT22;1868;48.918;9.438;2023-01-08T07:14:33;9.10;97.40
3705;DHT22;1868;48.918;9.438;2023-01-08T07:17:01;9.20;97.40
3705;DHT22;1868;48.918;9.438;2023-01-08T07:19:31;9.20;97.40
3705;DHT22;1868;48.918;9.438;2023-01-08T07:22:00;9.20;97.40
3705;DHT22;1868;48.918;9.438;2023-01-08T07:24:28;9.20;97.40
3705;DHT22;1868;48.918;9.438;2023-01-08T07:27:16;9.20;97.40
3705;DHT22;1868;48.918;9.438;2023-01-08T07:29:49;9.30;97.40
3705;DHT22;1868;48.918;9.438;2023-01-08T07:33:07;9.30;97.40
3705;DHT22;1868;48.918;9.438;2023-01-08T07:36:58;9.40;97.40
3705;DHT22;1868;48.918;9.438;2023-01-08T07:39:26;9.40;97.40
3705;DHT22;1868;48.918;9.438;2023-01-08T07:42:03;9.40;97.40
3705;DHT22;1868;48.918;9.438;2023-01-08T07:45:09;9.40;97.40
3705;DHT22;1868;48.918;9.438;2023-01-08T07:47:42;9.30;97.40
3705;DHT22;1868;48.918;9.438;2023-01-08T07:50:15;9.30;97.40
3705;DHT22;1868;48.918;9.438;2023-01-08T07:56:47;9.20;97.40
3705;DHT22;1868;48.918;9.438;2023-01-08T07:59:15;9.20;97.40
3705;DHT22;1868;48.918;9.438;2023-01-08T08:01:51;9.30;97.40
3705;DHT22;1868;48.918;9.438;2023-01-08T08:04:33;9.20;97.40
3705;DHT22;1868;48.918;9.438;2023-01-08T08:07:06;9.10;97.40
3705;DHT22;1868;48.918;9.438;2023-01-08T08:24:59;9.10;97.40
3705;DHT22;1868;48.918;9.438;2023-01-08T08:31:18;9.10;97.40
3705;DHT22;1868;48.918;9.438;2023-01-08T08:34:51;9.10;97.40
3705;DHT22;1868;48.918;9.438;2023-01-08T08:37:19;9.10;97.40
3705;DHT22;1868;48.918;9.438;2023-01-08T08:40:09;9.10;97.40
3705;DHT22;1868;48.918;9.438;2023-01-08T08:42:38;9.10;97.40
3705;DHT22;1868;48.918;9.438;2023-01-08T08:48:23;9.10;97.40
3705;DHT22;1868;48.918;9.438;2023-01-08T08:50:56;9.10;97.40
3705;DHT22;1868;48.918;9.438;2023-01-08T08:54:29;9.10;97.40
3705;DHT22;1868;48.918;9.438;2023-01-08T09:03:04;9.10;97.40
3705;DHT22;1868;48.918;9.438;2023-01-08T09:14:11;9.10;97.40
3705;DHT22;1868;48.918;9.438;2023-01-08T09:16:39;9.10;97.40
3705;DHT22;1868;48.918;9.438;2023-01-08T10:24:02;9.50;97.40
3705;DHT22;1868;48.918;9.438;2023-01-08T10:26:32;9.50;97.40
3705;DHT22;1868;48.918;9.438;2023-01-08T10:29:14;9.50;97.40
3705;DHT22;1868;48.918;9.438;2023-01-08T10:36:23;9.60;97.40
3705;DHT22;1868;48.918;9.438;2023-01-08T11:10:28;9.90;97.40
3705;DHT22;1868;48.918;9.438;2023-01-08T11:13:55;9.90;97.40
3705;DHT22;1868;48.918;9.438;2023-01-08T11:23:40;10.00;97.40
3705;DHT22;1868;48.918;9.438;2023-01-08T11:26:14;10.10;97.40
3705;DHT22;1868;48.918;9.438;2023-01-08T11:28:50;10.10;97.40
3705;DHT22;1868;48.918;9.438;2023-01-08T12:22:46;10.90;97.40
3705;DHT22;1868;48.918;9.438;2023-01-08T12:26:26;10.90;97.40
3705;DHT22;1868;48.918;9.438;2023-01-08T12:34:33;10.70;97.40
3705;DHT22;1868;48.918;9.438;2023-01-08T13:22:25;10.80;97.40
3705;DHT22;1868;48.918;9.438;2023-01-08T13:38:21;10.80;97.40
3705;DHT22;1868;48.918;9.438;2023-01-08T13:40:54;10.80;97.40
3705;DHT22;1868;48.918;9.438;2023-01-08T13:44:22;10.70;97.40
